createdAt,value
2023-05-14T00:00:35.189Z,875.36
2023-05-14T00:01:35.173Z,875.21
2023-05-14T00:02:35.235Z,874.55
2023-05-14T00:03:35.192Z,874.62
2023-05-14T00:04:35.207Z,874.95
2023-05-14T00:05:35.152Z,875.38
2023-05-14T00:06:35.142Z,875.34
2023-05-14T00:07:35.116Z,875.68
2023-05-14T00:08:35.106Z,876.40
2023-05-14T00:09:35.074Z,876.74
2023-05-14T00:10:35.104Z,876.82
2023-05-14T00:11:35.069Z,876.97
2023-05-14T00:12:35.032Z,876.70
2023-05-14T00:13:35.063Z,876.36
2023-05-14T00:14:35.027Z,876.59
2023-05-14T00:15:35.108Z,876.52
2023-05-14T00:16:35.150Z,876.71
2023-05-14T00:17:35.327Z,877.23
2023-05-14T00:18:34.994Z,877.36
2023-05-14T00:19:34.958Z,876.99
2023-05-14T00:20:34.982Z,878.40
2023-05-14T00:21:34.935Z,878.84
2023-05-14T00:22:35.230Z,879.09
2023-05-14T00:23:34.957Z,879.49
2023-05-14T00:24:35.172Z,880.03
2023-05-14T00:25:35.259Z,880.62
2023-05-14T00:26:35.145Z,881.02
2023-05-14T00:27:34.897Z,880.82
2023-05-14T00:28:34.882Z,881.05
2023-05-14T00:29:34.897Z,881.65
2023-05-14T00:30:35.128Z,881.37
2023-05-14T00:31:34.851Z,881.81
2023-05-14T00:32:34.845Z,882.04
2023-05-14T00:33:34.801Z,881.98
2023-05-14T00:34:34.804Z,882.98
2023-05-14T00:35:34.774Z,883.53
2023-05-14T00:36:34.767Z,884.71
2023-05-14T00:37:34.776Z,886.08
2023-05-14T00:38:34.739Z,886.93
2023-05-14T00:39:34.770Z,888.66
2023-05-14T00:40:34.759Z,889.62
2023-05-14T00:41:34.727Z,889.11
2023-05-14T00:42:34.707Z,889.91
2023-05-14T00:43:34.745Z,890.88
2023-05-14T00:44:34.690Z,892.31
2023-05-14T00:45:34.664Z,893.06
2023-05-14T00:46:34.962Z,893.56
2023-05-14T00:47:34.667Z,893.41
2023-05-14T00:48:34.648Z,893.32
2023-05-14T00:49:34.620Z,893.00
2023-05-14T00:50:34.608Z,893.05
2023-05-14T00:51:34.592Z,893.55
2023-05-14T00:52:34.620Z,894.35
2023-05-14T00:53:34.623Z,895.26
2023-05-14T00:54:34.601Z,895.32
2023-05-14T00:55:34.557Z,895.11
2023-05-14T00:56:37.468Z,896.05
2023-05-14T00:57:34.847Z,895.96
2023-05-14T00:58:34.552Z,896.40
2023-05-14T00:59:34.522Z,897.09
2023-05-14T01:00:34.526Z,899.33
2023-05-14T01:01:34.744Z,900.00
2023-05-14T01:02:34.577Z,899.28
2023-05-14T01:03:34.589Z,898.34
2023-05-14T01:04:34.435Z,898.01
2023-05-14T01:05:34.729Z,897.87
2023-05-14T01:06:37.189Z,898.60
2023-05-14T01:07:34.423Z,898.78
2023-05-14T01:08:34.396Z,899.58
2023-05-14T01:09:34.425Z,901.02
2023-05-14T01:10:34.375Z,901.38
2023-05-14T01:11:34.388Z,902.42
2023-05-14T01:12:34.486Z,903.40
2023-05-14T01:13:34.333Z,904.77
2023-05-14T01:14:34.631Z,905.86
2023-05-14T01:15:34.352Z,906.18
2023-05-14T01:16:34.426Z,905.94
2023-05-14T01:17:34.324Z,905.33
2023-05-14T01:18:34.322Z,905.21
2023-05-14T01:19:34.288Z,905.77
2023-05-14T01:20:34.301Z,905.83
2023-05-14T01:21:34.328Z,905.44
2023-05-14T01:22:34.260Z,904.74
2023-05-14T01:23:41.510Z,905.05
2023-05-14T01:24:43.116Z,905.09
2023-05-14T01:25:42.270Z,905.99
2023-05-14T01:26:41.488Z,906.03
2023-05-14T01:27:42.058Z,906.15
2023-05-14T01:28:41.539Z,906.71
2023-05-14T01:29:44.467Z,907.03
2023-05-14T01:30:34.172Z,907.04
2023-05-14T01:31:34.170Z,907.54
2023-05-14T01:32:34.174Z,907.23
2023-05-14T01:33:34.111Z,907.57
2023-05-14T01:34:34.115Z,907.69
2023-05-14T01:35:34.136Z,907.40
2023-05-14T01:36:34.141Z,907.09
2023-05-14T01:37:34.071Z,907.02
2023-05-14T01:38:34.247Z,907.37
2023-05-14T01:39:34.074Z,908.23
2023-05-14T01:40:34.088Z,910.09
2023-05-14T01:41:34.020Z,911.19
2023-05-14T01:42:34.008Z,912.20
2023-05-14T01:43:34.367Z,912.11
2023-05-14T01:44:34.003Z,912.39
2023-05-14T01:45:33.991Z,912.91
2023-05-14T01:46:34.227Z,912.87
2023-05-14T01:47:34.012Z,913.65
2023-05-14T01:48:34.332Z,915.05
2023-05-14T01:49:33.940Z,915.07
2023-05-14T01:50:33.930Z,915.43
2023-05-14T01:51:33.939Z,916.51
2023-05-14T01:52:33.905Z,917.15
2023-05-14T01:53:33.893Z,918.00
2023-05-14T01:54:33.901Z,918.44
2023-05-14T01:55:33.851Z,918.63
2023-05-14T01:56:33.887Z,918.76
2023-05-14T01:57:33.866Z,918.82
2023-05-14T01:58:33.858Z,919.42
2023-05-14T01:59:33.852Z,919.78
2023-05-14T02:00:33.828Z,919.96
2023-05-14T02:01:33.965Z,919.91
2023-05-14T02:02:33.888Z,919.46
2023-05-14T02:03:33.799Z,919.70
2023-05-14T02:04:33.789Z,920.24
2023-05-14T02:05:33.756Z,920.83
2023-05-14T02:06:33.735Z,922.14
2023-05-14T02:07:34.087Z,922.70
2023-05-14T02:08:33.732Z,922.82
2023-05-14T02:09:33.708Z,922.69
2023-05-14T02:10:33.748Z,923.09
2023-05-14T02:11:33.743Z,923.40
2023-05-14T02:12:33.689Z,923.99
2023-05-14T02:13:33.677Z,924.61
2023-05-14T02:14:33.667Z,924.10
2023-05-14T02:15:33.650Z,924.44
2023-05-14T02:16:33.850Z,924.84
2023-05-14T02:17:33.691Z,924.87
2023-05-14T02:18:33.654Z,925.25
2023-05-14T02:19:33.602Z,925.92
2023-05-14T02:20:33.613Z,926.56
2023-05-14T02:21:33.583Z,927.08
2023-05-14T02:22:33.574Z,927.35
2023-05-14T02:23:41.096Z,927.59
2023-05-14T02:24:34.551Z,928.02
2023-05-14T02:25:33.549Z,927.90
2023-05-14T02:26:33.538Z,928.20
2023-05-14T02:27:33.536Z,928.60
2023-05-14T02:28:33.514Z,928.27
2023-05-14T02:29:33.484Z,928.69
2023-05-14T02:30:33.535Z,928.85
2023-05-14T02:31:33.534Z,929.21
2023-05-14T02:32:33.547Z,929.30
2023-05-14T02:33:33.543Z,929.78
2023-05-14T02:34:33.440Z,929.45
2023-05-14T02:35:33.458Z,929.48
2023-05-14T02:36:33.489Z,928.88
2023-05-14T02:37:33.416Z,928.81
2023-05-14T02:38:33.402Z,928.66
2023-05-14T02:39:33.426Z,928.34
2023-05-14T02:40:33.402Z,928.98
2023-05-14T02:41:33.376Z,929.19
2023-05-14T02:42:33.375Z,929.29
2023-05-14T02:43:33.368Z,929.17
2023-05-14T02:44:33.341Z,929.29
2023-05-14T02:45:33.331Z,929.60
2023-05-14T02:46:33.383Z,930.17
2023-05-14T02:47:34.739Z,929.89
2023-05-14T02:48:33.321Z,929.13
2023-05-14T02:49:33.300Z,928.86
2023-05-14T02:50:33.578Z,929.22
2023-05-14T02:51:33.267Z,929.69
2023-05-14T02:52:33.235Z,929.74
2023-05-14T02:53:33.255Z,929.48
2023-05-14T02:54:33.562Z,929.90
2023-05-14T02:55:33.207Z,931.10
2023-05-14T02:56:33.195Z,931.66
2023-05-14T02:57:33.214Z,932.20
2023-05-14T02:58:33.190Z,932.50
2023-05-14T02:59:33.196Z,933.13
2023-05-14T03:00:33.207Z,933.89
2023-05-14T03:01:33.167Z,934.24
2023-05-14T03:02:33.234Z,934.13
2023-05-14T03:03:33.221Z,934.33
2023-05-14T03:04:33.117Z,934.07
2023-05-14T03:05:34.856Z,933.98
2023-05-14T03:06:33.083Z,934.04
2023-05-14T03:07:33.102Z,934.20
2023-05-14T03:08:33.086Z,934.71
2023-05-14T03:09:33.067Z,934.65
2023-05-14T03:10:33.078Z,935.11
2023-05-14T03:11:33.031Z,935.26
2023-05-14T03:12:33.038Z,934.83
2023-05-14T03:13:33.073Z,934.54
2023-05-14T03:14:33.024Z,934.11
2023-05-14T03:15:32.979Z,934.57
2023-05-14T03:16:33.372Z,934.48
2023-05-14T03:17:33.033Z,934.06
2023-05-14T03:18:40.889Z,934.25
2023-05-14T03:19:40.025Z,934.85
2023-05-14T03:20:32.938Z,935.11
2023-05-14T03:21:40.021Z,935.54
2023-05-14T03:22:33.248Z,935.37
2023-05-14T03:23:32.934Z,935.16
2023-05-14T03:24:32.918Z,935.48
2023-05-14T03:25:32.874Z,935.84
2023-05-14T03:26:32.868Z,935.56
2023-05-14T03:27:32.886Z,935.71
2023-05-14T03:28:32.837Z,935.31
2023-05-14T03:29:32.852Z,936.37
2023-05-14T03:30:32.892Z,936.57
2023-05-14T03:31:33.167Z,936.38
2023-05-14T03:32:32.818Z,936.22
2023-05-14T03:33:32.791Z,936.54
2023-05-14T03:34:32.775Z,936.22
2023-05-14T03:35:32.802Z,935.69
2023-05-14T03:36:32.793Z,934.99
2023-05-14T03:37:32.751Z,935.06
2023-05-14T03:38:32.750Z,935.07
2023-05-14T03:39:33.719Z,934.79
2023-05-14T03:40:32.754Z,934.15
2023-05-14T03:41:32.736Z,934.16
2023-05-14T03:42:33.650Z,933.61
2023-05-14T03:43:32.716Z,933.21
2023-05-14T03:44:32.684Z,933.36
2023-05-14T03:45:32.685Z,934.74
2023-05-14T03:46:35.425Z,937.13
2023-05-14T03:47:32.722Z,938.22
2023-05-14T03:48:32.684Z,937.92
2023-05-14T03:49:32.616Z,938.03
2023-05-14T03:50:32.666Z,938.59
2023-05-14T03:51:32.610Z,938.47
2023-05-14T03:52:32.587Z,938.57
2023-05-14T03:53:32.584Z,938.37
2023-05-14T03:54:32.657Z,938.59
2023-05-14T03:55:32.569Z,939.16
2023-05-14T03:56:32.550Z,939.00
2023-05-14T03:57:32.544Z,938.75
2023-05-14T03:58:32.812Z,938.12
2023-05-14T03:59:32.576Z,938.96
2023-05-14T04:00:32.832Z,938.75
2023-05-14T04:01:32.464Z,939.04
2023-05-14T04:02:34.315Z,939.39
2023-05-14T04:03:32.721Z,940.46
2023-05-14T04:04:32.549Z,940.86
2023-05-14T04:05:32.438Z,942.18
2023-05-14T04:06:32.427Z,944.43
2023-05-14T04:07:32.425Z,945.56
2023-05-14T04:08:32.750Z,946.66
2023-05-14T04:09:32.401Z,948.48
2023-05-14T04:10:32.418Z,949.94
2023-05-14T04:11:32.387Z,950.88
2023-05-14T04:12:32.698Z,952.16
2023-05-14T04:13:32.400Z,953.23
2023-05-14T04:14:32.632Z,955.09
2023-05-14T04:15:32.338Z,955.63
2023-05-14T04:16:32.698Z,956.86
2023-05-14T04:17:36.379Z,957.77
2023-05-14T04:18:32.371Z,958.05
2023-05-14T04:19:35.089Z,957.85
2023-05-14T04:20:32.263Z,957.64
2023-05-14T04:21:32.278Z,958.02
2023-05-14T04:22:32.264Z,958.51
2023-05-14T04:23:32.271Z,959.17
2023-05-14T04:24:32.233Z,960.04
2023-05-14T04:25:32.213Z,960.63
2023-05-14T04:26:32.234Z,961.80
2023-05-14T04:27:32.208Z,962.82
2023-05-14T04:28:32.190Z,964.43
2023-05-14T04:29:32.183Z,966.32
2023-05-14T04:30:32.175Z,966.97
2023-05-14T04:31:32.164Z,970.00
2023-05-14T04:32:32.185Z,971.35
2023-05-14T04:33:32.148Z,972.54
2023-05-14T04:34:32.213Z,975.60
2023-05-14T04:35:32.103Z,979.64
2023-05-14T04:36:32.090Z,975.28
2023-05-14T04:37:32.101Z,974.30
2023-05-14T04:38:32.063Z,972.16
2023-05-14T04:39:32.053Z,973.75
2023-05-14T04:40:32.395Z,971.42
2023-05-14T04:41:32.048Z,971.71
2023-05-14T04:42:32.009Z,969.98
2023-05-14T04:43:32.015Z,970.89
2023-05-14T04:44:32.009Z,970.83
2023-05-14T04:45:33.998Z,968.76
2023-05-14T04:46:32.068Z,972.33
2023-05-14T04:47:31.997Z,974.41
2023-05-14T04:48:32.314Z,970.22
2023-05-14T04:49:31.941Z,970.37
2023-05-14T04:50:31.970Z,968.81
2023-05-14T04:51:31.941Z,972.85
2023-05-14T04:52:31.897Z,971.54
2023-05-14T04:53:31.924Z,973.64
2023-05-14T04:54:31.926Z,977.21
2023-05-14T04:55:31.877Z,980.80
2023-05-14T04:56:31.876Z,979.68
2023-05-14T04:57:31.865Z,977.40
2023-05-14T04:58:34.493Z,976.71
2023-05-14T04:59:31.935Z,975.27
2023-05-14T05:00:31.894Z,977.55
2023-05-14T05:01:31.856Z,979.48
2023-05-14T05:02:31.815Z,979.49
2023-05-14T05:03:31.808Z,979.23
2023-05-14T05:04:31.797Z,981.59
2023-05-14T05:05:31.782Z,982.17
2023-05-14T05:06:31.784Z,978.60
2023-05-14T05:07:32.055Z,979.93
2023-05-14T05:08:40.032Z,982.84
2023-05-14T05:09:39.751Z,983.70
2023-05-14T05:10:39.999Z,982.44
2023-05-14T05:11:40.079Z,984.30
2023-05-14T05:12:39.520Z,973.52
2023-05-14T05:13:39.040Z,970.71
2023-05-14T05:14:31.665Z,980.29
2023-05-14T05:15:31.681Z,985.75
2023-05-14T05:16:31.769Z,981.86
2023-05-14T05:17:31.646Z,975.91
2023-05-14T05:18:31.703Z,970.49
2023-05-14T05:19:42.382Z,967.30
2023-05-14T05:20:32.630Z,978.60
2023-05-14T05:21:31.610Z,965.48
2023-05-14T05:22:31.582Z,971.38
2023-05-14T05:23:31.587Z,974.17
2023-05-14T05:24:31.565Z,976.78
2023-05-14T05:25:33.366Z,979.31
2023-05-14T05:26:31.517Z,981.14
2023-05-14T05:27:31.556Z,982.50
2023-05-14T05:28:31.510Z,976.40
2023-05-14T05:29:31.502Z,970.93
2023-05-14T05:30:31.507Z,976.12
2023-05-14T05:31:31.518Z,973.94
2023-05-14T05:32:31.589Z,968.84
2023-05-14T05:33:31.452Z,972.70
2023-05-14T05:34:31.484Z,971.12
2023-05-14T05:35:31.432Z,972.82
2023-05-14T05:36:31.467Z,972.08
2023-05-14T05:37:31.398Z,961.53
2023-05-14T05:38:31.398Z,958.36
2023-05-14T05:39:31.387Z,952.92
2023-05-14T05:40:31.359Z,969.46
2023-05-14T05:41:31.410Z,988.55
2023-05-14T05:42:31.360Z,967.93
2023-05-14T05:43:31.389Z,961.11
2023-05-14T05:44:31.337Z,966.34
2023-05-14T05:45:31.347Z,974.67
2023-05-14T05:46:31.340Z,968.71
2023-05-14T05:47:31.364Z,973.39
2023-05-14T05:48:31.324Z,993.27
2023-05-14T05:49:31.280Z,995.52
2023-05-14T05:50:31.264Z,980.53
2023-05-14T05:51:31.237Z,983.73
2023-05-14T05:52:31.248Z,989.94
2023-05-14T05:53:31.221Z,980.13
2023-05-14T05:54:31.214Z,972.39
2023-05-14T05:55:31.239Z,976.87
2023-05-14T05:56:31.182Z,989.88
2023-05-14T05:57:31.530Z,991.51
2023-05-14T05:58:31.171Z,983.52
2023-05-14T05:59:31.172Z,981.04
2023-05-14T06:00:31.183Z,983.08
2023-05-14T06:01:31.140Z,983.91
2023-05-14T06:02:31.492Z,981.33
2023-05-14T06:03:31.118Z,979.37
2023-05-14T06:04:31.105Z,979.64
2023-05-14T06:05:31.138Z,978.56
2023-05-14T06:06:31.117Z,982.44
2023-05-14T06:07:33.848Z,981.94
2023-05-14T06:08:31.053Z,978.75
2023-05-14T06:09:31.063Z,971.00
2023-05-14T06:10:31.040Z,976.31
2023-05-14T06:11:31.064Z,975.05
2023-05-14T06:12:31.004Z,966.85
2023-05-14T06:13:31.010Z,971.30
2023-05-14T06:14:31.022Z,983.45
2023-05-14T06:15:30.990Z,975.15
2023-05-14T06:16:31.002Z,967.67
2023-05-14T06:17:33.771Z,949.14
2023-05-14T06:18:30.978Z,962.38
2023-05-14T06:19:30.933Z,950.44
2023-05-14T06:20:30.924Z,973.59
2023-05-14T06:21:31.271Z,973.66
2023-05-14T06:22:30.896Z,952.14
2023-05-14T06:23:30.918Z,954.47
2023-05-14T06:24:30.877Z,964.82
2023-05-14T06:25:30.884Z,967.82
2023-05-14T06:26:30.850Z,964.52
2023-05-14T06:27:30.866Z,952.83
2023-05-14T06:28:30.822Z,939.61
2023-05-14T06:29:30.815Z,952.77
2023-05-14T06:30:30.868Z,955.07
2023-05-14T06:31:30.978Z,957.17
2023-05-14T06:32:30.837Z,958.74
2023-05-14T06:33:30.893Z,960.00
2023-05-14T06:34:30.782Z,960.23
2023-05-14T06:35:30.739Z,959.66
2023-05-14T06:36:31.053Z,959.19
2023-05-14T06:37:30.774Z,958.41
2023-05-14T06:38:30.713Z,957.38
2023-05-14T06:39:30.737Z,956.27
2023-05-14T06:40:30.687Z,953.80
2023-05-14T06:41:30.938Z,950.01
2023-05-14T06:42:30.677Z,949.09
2023-05-14T06:43:30.653Z,946.82
2023-05-14T06:44:31.436Z,945.30
2023-05-14T06:45:32.437Z,942.56
2023-05-14T06:46:30.621Z,939.83
2023-05-14T06:47:30.622Z,940.02
2023-05-14T06:48:30.651Z,939.98
2023-05-14T06:49:32.457Z,941.54
2023-05-14T06:50:30.864Z,945.33
2023-05-14T06:51:31.426Z,944.50
2023-05-14T06:52:30.565Z,945.19
2023-05-14T06:53:30.960Z,947.72
2023-05-14T06:54:30.529Z,947.73
2023-05-14T06:55:30.503Z,938.75
2023-05-14T06:56:30.556Z,898.57
2023-05-14T06:57:30.486Z,908.48
2023-05-14T06:58:30.537Z,886.56
2023-05-14T06:59:30.837Z,858.11
2023-05-14T07:00:30.497Z,853.32
2023-05-14T07:01:41.265Z,849.55
2023-05-14T07:02:41.443Z,845.38
2023-05-14T07:03:41.692Z,855.33
2023-05-14T07:04:40.833Z,837.77
2023-05-14T07:05:45.127Z,830.42
2023-05-14T07:06:31.444Z,838.09
2023-05-14T07:07:31.289Z,851.82
2023-05-14T07:08:31.343Z,839.50
2023-05-14T07:09:30.739Z,832.16
2023-05-14T07:10:30.356Z,833.91
2023-05-14T07:11:30.340Z,835.03
2023-05-14T07:12:33.235Z,833.87
2023-05-14T07:13:31.364Z,838.24
2023-05-14T07:14:34.490Z,841.12
2023-05-14T07:15:32.128Z,849.30
2023-05-14T07:16:30.430Z,859.54
2023-05-14T07:17:30.401Z,886.51
2023-05-14T07:18:32.291Z,893.64
2023-05-14T07:19:31.340Z,906.28
2023-05-14T07:20:31.481Z,903.56
2023-05-14T07:21:32.470Z,902.83
2023-05-14T07:22:31.307Z,905.04
2023-05-14T07:23:32.220Z,909.16
2023-05-14T07:24:30.607Z,906.83
2023-05-14T07:25:30.181Z,903.34
2023-05-14T07:26:32.944Z,901.51
2023-05-14T07:27:33.506Z,902.10
2023-05-14T07:28:31.064Z,900.85
2023-05-14T07:29:31.970Z,900.64
2023-05-14T07:30:30.187Z,899.43
2023-05-14T07:31:30.150Z,897.09
2023-05-14T07:32:30.135Z,894.95
2023-05-14T07:33:31.039Z,892.91
2023-05-14T07:34:30.092Z,893.26
2023-05-14T07:35:34.388Z,890.42
2023-05-14T07:36:32.909Z,887.44
2023-05-14T07:37:33.612Z,887.84
2023-05-14T07:38:32.789Z,884.87
2023-05-14T07:39:34.194Z,883.79
2023-05-14T07:40:31.429Z,882.21
2023-05-14T07:41:30.825Z,879.86
2023-05-14T07:42:36.583Z,878.52
2023-05-14T07:43:30.046Z,878.03
2023-05-14T07:44:32.483Z,876.23
2023-05-14T07:45:30.386Z,875.26
2023-05-14T07:46:31.767Z,876.55
2023-05-14T07:47:32.891Z,877.66
2023-05-14T07:48:32.968Z,877.37
2023-05-14T07:49:32.675Z,874.05
2023-05-14T07:50:30.294Z,872.47
2023-05-14T07:51:29.947Z,870.42
2023-05-14T07:52:29.881Z,869.86
2023-05-14T07:53:32.691Z,872.21
2023-05-14T07:54:32.742Z,872.10
2023-05-14T07:55:32.024Z,868.31
2023-05-14T07:56:34.285Z,863.60
2023-05-14T07:57:35.009Z,861.88
2023-05-14T07:58:30.244Z,858.98
2023-05-14T07:59:30.539Z,855.93
2023-05-14T08:00:29.776Z,852.45
2023-05-14T08:01:29.790Z,848.14
2023-05-14T08:02:30.018Z,843.94
2023-05-14T08:03:29.868Z,844.40
2023-05-14T08:04:29.873Z,840.72
2023-05-14T08:05:29.745Z,839.51
2023-05-14T08:06:29.718Z,838.31
2023-05-14T08:07:29.735Z,836.47
2023-05-14T08:08:29.721Z,836.71
2023-05-14T08:09:29.674Z,836.29
2023-05-14T08:10:29.853Z,833.00
2023-05-14T08:11:29.661Z,830.99
2023-05-14T08:12:29.665Z,827.99
2023-05-14T08:13:29.650Z,825.88
2023-05-14T08:14:29.659Z,823.74
2023-05-14T08:15:29.656Z,823.29
2023-05-14T08:16:29.697Z,822.37
2023-05-14T08:17:29.642Z,822.59
2023-05-14T08:18:29.910Z,797.85
2023-05-14T08:19:29.607Z,821.81
2023-05-14T08:20:29.613Z,808.71
2023-05-14T08:21:29.574Z,817.33
2023-05-14T08:22:29.615Z,781.07
2023-05-14T08:23:29.574Z,812.93
2023-05-14T08:24:29.576Z,804.06
2023-05-14T08:25:29.522Z,809.68
2023-05-14T08:26:29.493Z,785.21
2023-05-14T08:27:29.478Z,797.31
2023-05-14T08:28:29.471Z,801.76
2023-05-14T08:29:29.499Z,807.13
2023-05-14T08:30:29.447Z,805.91
2023-05-14T08:31:29.500Z,806.18
2023-05-14T08:32:29.449Z,804.75
2023-05-14T08:33:29.462Z,802.71
2023-05-14T08:34:29.399Z,801.37
2023-05-14T08:35:30.148Z,799.00
2023-05-14T08:36:29.408Z,797.57
2023-05-14T08:37:29.363Z,794.99
2023-05-14T08:38:29.386Z,797.41
2023-05-14T08:39:29.345Z,798.28
2023-05-14T08:40:32.211Z,796.13
2023-05-14T08:41:31.217Z,794.41
2023-05-14T08:42:29.377Z,791.74
2023-05-14T08:43:29.349Z,790.21
2023-05-14T08:44:29.277Z,787.98
2023-05-14T08:45:29.300Z,785.43
2023-05-14T08:46:29.265Z,788.74
2023-05-14T08:47:29.267Z,788.46
2023-05-14T08:48:29.659Z,787.39
2023-05-14T08:49:29.233Z,786.61
2023-05-14T08:50:29.712Z,782.67
2023-05-14T08:51:29.241Z,780.45
2023-05-14T08:52:29.187Z,781.25
2023-05-14T08:53:36.699Z,783.73
2023-05-14T08:54:36.512Z,784.74
2023-05-14T08:55:37.191Z,782.93
2023-05-14T08:56:36.163Z,781.43
2023-05-14T08:57:36.181Z,780.57
2023-05-14T08:58:37.514Z,778.83
2023-05-14T08:59:29.143Z,777.32
2023-05-14T09:00:36.131Z,774.73
2023-05-14T09:01:37.190Z,771.66
2023-05-14T09:02:37.990Z,777.44
2023-05-14T09:03:29.123Z,779.47
2023-05-14T09:04:29.105Z,781.13
2023-05-14T09:05:29.062Z,779.51
2023-05-14T09:06:29.053Z,777.41
2023-05-14T09:07:29.028Z,775.68
2023-05-14T09:08:29.063Z,777.66
2023-05-14T09:09:29.005Z,774.66
2023-05-14T09:10:29.017Z,774.84
2023-05-14T09:11:29.003Z,770.81
2023-05-14T09:12:28.953Z,767.39
2023-05-14T09:13:28.933Z,764.75
2023-05-14T09:14:28.962Z,761.39
2023-05-14T09:15:29.060Z,761.92
2023-05-14T09:16:29.008Z,761.79
2023-05-14T09:17:28.946Z,761.74
2023-05-14T09:18:28.945Z,762.14
2023-05-14T09:19:28.863Z,765.80
2023-05-14T09:20:29.131Z,765.08
2023-05-14T09:21:30.186Z,761.90
2023-05-14T09:22:29.138Z,758.81
2023-05-14T09:23:28.841Z,757.10
2023-05-14T09:24:28.832Z,758.31
2023-05-14T09:25:28.812Z,757.16
2023-05-14T09:26:28.847Z,754.79
2023-05-14T09:27:29.803Z,753.58
2023-05-14T09:28:28.808Z,753.48
2023-05-14T09:29:28.796Z,754.08
2023-05-14T09:30:31.552Z,754.45
2023-05-14T09:31:28.771Z,757.93
2023-05-14T09:32:28.766Z,760.43
2023-05-14T09:33:28.743Z,761.61
2023-05-14T09:34:28.712Z,764.28
2023-05-14T09:35:28.698Z,762.69
2023-05-14T09:36:28.721Z,761.22
2023-05-14T09:37:28.708Z,759.69
2023-05-14T09:38:28.778Z,757.74
2023-05-14T09:39:28.688Z,762.56
2023-05-14T09:40:29.193Z,764.58
2023-05-14T09:41:28.635Z,762.84
2023-05-14T09:42:28.619Z,759.83
2023-05-14T09:43:28.660Z,760.46
2023-05-14T09:44:31.969Z,760.92
2023-05-14T09:45:33.172Z,761.71
2023-05-14T09:46:38.995Z,760.18
2023-05-14T09:47:29.227Z,757.71
2023-05-14T09:48:29.322Z,755.30
2023-05-14T09:49:28.552Z,753.57
2023-05-14T09:50:28.582Z,752.48
2023-05-14T09:51:28.520Z,749.13
2023-05-14T09:52:28.796Z,747.78
2023-05-14T09:53:28.508Z,752.48
2023-05-14T09:54:30.361Z,764.73
2023-05-14T09:55:28.532Z,770.84
2023-05-14T09:56:28.479Z,766.45
2023-05-14T09:57:28.494Z,764.39
2023-05-14T09:58:28.765Z,772.02
2023-05-14T09:59:28.460Z,772.04
2023-05-14T10:00:28.454Z,768.77
2023-05-14T10:01:32.748Z,765.78
2023-05-14T10:02:28.937Z,761.19
2023-05-14T10:03:28.415Z,758.59
2023-05-14T10:04:28.504Z,754.50
2023-05-14T10:05:28.714Z,747.74
2023-05-14T10:06:28.368Z,747.47
2023-05-14T10:07:28.379Z,748.13
2023-05-14T10:08:28.424Z,748.55
2023-05-14T10:09:29.348Z,756.00
2023-05-14T10:10:28.731Z,763.30
2023-05-14T10:11:29.136Z,751.03
2023-05-14T10:12:28.326Z,756.24
2023-05-14T10:13:29.478Z,757.99
2023-05-14T10:14:28.298Z,767.17
2023-05-14T10:15:29.870Z,776.83
2023-05-14T10:16:28.335Z,777.42
2023-05-14T10:17:28.261Z,771.92
2023-05-14T10:18:28.310Z,762.29
2023-05-14T10:19:28.431Z,763.67
2023-05-14T10:20:29.054Z,771.27
2023-05-14T10:21:28.560Z,773.24
2023-05-14T10:22:28.187Z,764.35
2023-05-14T10:23:28.176Z,765.96
2023-05-14T10:24:28.484Z,780.82
2023-05-14T10:25:28.209Z,797.49
2023-05-14T10:26:29.286Z,817.43
2023-05-14T10:27:28.149Z,828.11
2023-05-14T10:28:29.075Z,843.85
2023-05-14T10:29:29.549Z,691.55
2023-05-14T10:30:28.107Z,831.40
2023-05-14T10:31:29.193Z,847.82
2023-05-14T10:32:28.155Z,825.41
2023-05-14T10:33:28.078Z,737.52
2023-05-14T10:34:28.072Z,807.89
2023-05-14T10:35:29.564Z,769.46
2023-05-14T10:36:29.502Z,665.72
2023-05-14T10:37:28.022Z,750.18
2023-05-14T10:38:28.359Z,867.22
2023-05-14T10:39:28.004Z,811.02
2023-05-14T10:40:27.995Z,889.46
2023-05-14T10:41:27.974Z,905.97
2023-05-14T10:42:28.035Z,919.72
2023-05-14T10:43:27.969Z,923.87
2023-05-14T10:44:28.474Z,913.83
2023-05-14T10:45:28.536Z,909.25
2023-05-14T10:46:38.778Z,908.16
2023-05-14T10:47:36.965Z,891.95
2023-05-14T10:48:36.880Z,852.58
2023-05-14T10:49:43.627Z,844.66
2023-05-14T10:50:30.054Z,849.50
2023-05-14T10:51:29.350Z,851.63
2023-05-14T10:52:29.185Z,852.96
2023-05-14T10:53:29.319Z,869.13
2023-05-14T10:54:29.274Z,882.60
2023-05-14T10:55:33.131Z,886.44
2023-05-14T10:56:29.522Z,889.00
2023-05-14T10:57:28.820Z,887.99
2023-05-14T10:58:28.934Z,896.32
2023-05-14T10:59:29.425Z,897.46
2023-05-14T11:00:29.378Z,901.97
2023-05-14T11:01:29.002Z,894.94
2023-05-14T11:02:28.816Z,909.21
2023-05-14T11:03:29.570Z,917.66
2023-05-14T11:04:28.991Z,920.91
2023-05-14T11:05:28.626Z,927.76
2023-05-14T11:06:28.848Z,933.01
2023-05-14T11:07:29.599Z,941.02
2023-05-14T11:08:29.521Z,943.64
2023-05-14T11:09:28.811Z,943.04
2023-05-14T11:10:29.183Z,936.18
2023-05-14T11:11:28.699Z,932.56
2023-05-14T11:12:29.144Z,932.44
2023-05-14T11:13:29.616Z,932.68
2023-05-14T11:14:28.975Z,948.17
2023-05-14T11:16:39.667Z,974.52
2023-05-14T11:17:40.235Z,982.36
2023-05-14T11:18:39.763Z,918.29
2023-05-14T11:19:39.744Z,919.22
2023-05-14T11:20:40.257Z,921.62
2023-05-14T11:21:39.855Z,918.45
2023-05-14T11:22:39.574Z,911.16
2023-05-14T11:23:39.625Z,971.82
2023-05-14T11:24:39.563Z,893.03
2023-05-14T11:25:39.534Z,889.61
2023-05-14T11:26:40.071Z,884.59
2023-05-14T11:27:39.624Z,881.87
2023-05-14T11:28:39.878Z,885.68
2023-05-14T11:29:39.466Z,893.76
2023-05-14T11:30:39.627Z,892.69
2023-05-14T11:31:39.922Z,904.27
2023-05-14T11:32:39.584Z,948.34
2023-05-14T11:33:39.346Z,900.35
2023-05-14T11:34:39.533Z,877.87
2023-05-14T11:35:39.785Z,885.77
2023-05-14T11:36:39.694Z,889.16
2023-05-14T11:37:42.203Z,921.38
2023-05-14T11:38:39.586Z,911.26
2023-05-14T11:39:40.805Z,844.06
2023-05-14T11:40:41.099Z,812.76
2023-05-14T11:41:39.420Z,801.79
2023-05-14T11:42:39.457Z,799.52
2023-05-14T11:43:39.334Z,806.02
2023-05-14T11:44:39.778Z,847.70
2023-05-14T11:45:39.950Z,883.88
2023-05-14T11:46:39.597Z,914.00
2023-05-14T11:47:40.749Z,963.07
2023-05-14T11:48:39.345Z,948.57
2023-05-14T11:49:39.782Z,989.06
2023-05-14T11:50:39.402Z,945.94
2023-05-14T11:51:40.855Z,893.58
2023-05-14T11:52:39.319Z,881.49
2023-05-14T11:53:40.549Z,884.97
2023-05-14T11:54:39.676Z,883.14
2023-05-14T11:55:39.315Z,888.98
2023-05-14T11:56:39.297Z,889.79
2023-05-14T11:57:39.197Z,995.16
2023-05-14T11:58:39.593Z,988.14
2023-05-14T11:59:39.828Z,944.34
2023-05-14T12:00:39.060Z,906.02
2023-05-14T12:01:39.874Z,864.62
2023-05-14T12:02:39.077Z,857.61
2023-05-14T12:03:39.228Z,863.92
2023-05-14T12:04:39.314Z,881.29
2023-05-14T12:05:39.445Z,896.87
2023-05-14T12:06:41.278Z,909.19
2023-05-14T12:07:39.252Z,917.02
2023-05-14T12:08:42.448Z,909.69
2023-05-14T12:09:39.095Z,901.14
2023-05-14T12:10:40.903Z,895.01
2023-05-14T12:11:39.971Z,897.45
2023-05-14T12:12:38.780Z,904.55
2023-05-14T12:13:41.124Z,916.46
2023-05-14T12:14:39.161Z,922.45
2023-05-14T12:15:39.019Z,923.90
2023-05-14T12:16:41.544Z,927.06
2023-05-14T12:17:39.377Z,931.40
2023-05-14T12:18:40.684Z,931.75
2023-05-14T12:19:38.797Z,930.93
2023-05-14T12:20:39.145Z,926.86
2023-05-14T12:21:38.907Z,925.82
2023-05-14T12:22:39.174Z,924.70
2023-05-14T12:23:38.951Z,924.77
2023-05-14T12:24:38.733Z,933.41
2023-05-14T12:25:37.958Z,973.59
2023-05-14T12:26:39.677Z,917.97
2023-05-14T12:27:38.865Z,921.36
2023-05-14T12:28:38.829Z,915.95
2023-05-14T12:29:39.293Z,915.52